Time;durP1;ratioP1;P1;durP2;ratioP2;P2;SDS_P1;SDS_P2;PMS_P1;PMS_P2;Temp;Humidity;BMP_temperature;BMP_pressure;BME280_temperature;BME280_humidity;BME280_pressure;Samples;Min_cycle;Max_cycle;Signal;HPM_P1;HPM_P2
2023/03/27 00:02:21;;;;;;;2.65;1.95;;;-0.40;99.90;;;;;;4842587;29;20050;-61
2023/03/27 00:04:49;;;;;;;4.05;2.10;;;-0.40;99.90;;;;;;4845445;29;20055;-62
2023/03/27 00:07:16;;;;;;;3.90;2.17;;;-0.40;99.90;;;;;;4849187;29;20197;-62
2023/03/27 00:09:45;;;;;;;3.00;1.80;;;-0.50;99.90;;;;;;4845901;29;20052;-64
2023/03/27 00:12:12;;;;;;;3.75;2.15;;;-0.40;99.90;;;;;;4847245;29;20540;-65
2023/03/27 00:14:39;;;;;;;3.70;1.95;;;-0.50;99.90;;;;;;4845691;29;20045;-67
2023/03/27 00:17:05;;;;;;;2.85;2.40;;;-0.50;99.90;;;;;;4844676;29;20070;-63
2023/03/27 00:19:32;;;;;;;5.78;2.28;;;-0.40;99.90;;;;;;4842974;29;20155;-62
2023/03/27 00:21:59;;;;;;;4.93;2.03;;;-0.50;99.90;;;;;;4843861;29;20054;-66
2023/03/27 00:24:27;;;;;;;4.80;2.75;;;-0.50;99.90;;;;;;4846957;29;20141;-64
2023/03/27 00:26:54;;;;;;;2.88;1.90;;;-0.50;99.90;;;;;;4842614;29;20100;-64
2023/03/27 00:29:21;;;;;;;5.10;2.00;;;-0.50;99.90;;;;;;4843671;29;20049;-65
2023/03/27 00:31:48;;;;;;;4.50;2.55;;;-0.50;99.90;;;;;;4849044;29;20105;-66
2023/03/27 00:34:15;;;;;;;2.15;1.85;;;-0.50;99.90;;;;;;4848388;29;20045;-65
2023/03/27 00:36:42;;;;;;;2.42;2.20;;;-0.50;99.90;;;;;;4842156;29;20114;-65
2023/03/27 00:39:10;;;;;;;4.53;1.95;;;-0.60;99.90;;;;;;4844903;29;20088;-62
2023/03/27 00:41:37;;;;;;;3.33;1.92;;;-0.50;99.90;;;;;;4847270;29;20164;-67
2023/03/27 00:44:24;;;;;;;3.53;2.03;;;-0.50;99.90;;;;;;4842678;29;20053;-67
2023/03/27 00:46:54;;;;;;;7.53;5.05;;;-0.50;99.90;;;;;;4847993;29;20059;-63
2023/03/27 00:49:22;;;;;;;5.38;2.28;;;-0.50;99.90;;;;;;4844039;29;20074;-66
2023/03/27 00:51:51;;;;;;;4.70;2.05;;;-0.50;99.90;;;;;;4848978;29;20057;-65
2023/03/27 00:54:25;;;;;;;3.22;2.42;;;-0.60;99.90;;;;;;4849201;29;20554;-66
2023/03/27 00:56:57;;;;;;;7.10;2.35;;;-0.60;99.90;;;;;;4846289;29;21720;-63
2023/03/27 00:59:30;;;;;;;3.50;1.83;;;-0.50;99.90;;;;;;4858593;29;20077;-64
2023/03/27 01:02:00;;;;;;;3.90;2.22;;;-0.50;99.90;;;;;;4849458;29;20062;-63
2023/03/27 01:04:30;;;;;;;5.85;2.10;;;-0.50;99.90;;;;;;4848778;29;20045;-64
2023/03/27 01:06:59;;;;;;;4.97;2.22;;;-0.50;99.90;;;;;;4848365;29;20056;-66
2023/03/27 01:09:27;;;;;;;6.45;1.83;;;-0.50;99.90;;;;;;4843851;29;20064;-63
2023/03/27 01:12:12;;;;;;;4.28;2.10;;;-0.50;99.90;;;;;;4846719;29;20060;-64
2023/03/27 01:14:45;;;;;;;3.33;1.75;;;-0.50;99.90;;;;;;4843575;29;20531;-66
2023/03/27 01:17:25;;;;;;;6.68;2.40;;;-0.50;99.90;;;;;;4857768;29;20172;-62
2023/03/27 01:19:59;;;;;;;12.50;3.40;;;-0.50;99.90;;;;;;4842229;29;20156;-64
2023/03/27 01:22:47;;;;;;;8.15;3.88;;;-0.60;99.90;;;;;;4844072;29;20042;-65
2023/03/27 01:25:38;;;;;;;2.88;2.35;;;-0.60;99.90;;;;;;4836050;29;20690;-63
2023/03/27 01:28:25;;;;;;;5.13;1.80;;;-0.60;99.90;;;;;;4845650;29;20045;-64
2023/03/27 01:31:06;;;;;;;3.92;2.75;;;-0.50;99.90;;;;;;4861563;29;20378;-62
2023/03/27 01:33:46;;;;;;;6.65;2.70;;;-0.60;99.90;;;;;;4860052;29;20069;-64
2023/03/27 01:36:19;;;;;;;6.32;2.28;;;-0.60;99.90;;;;;;4855763;29;20080;-64
2023/03/27 01:39:04;;;;;;;3.35;2.28;;;-0.60;99.90;;;;;;4860986;29;20798;-64
2023/03/27 01:41:42;;;;;;;2.65;1.95;;;-0.60;99.90;;;;;;4841361;29;20563;-65
2023/03/27 01:44:15;;;;;;;7.00;2.25;;;-0.50;99.90;;;;;;4845900;29;20515;-65
2023/03/27 01:46:53;;;;;;;4.18;1.70;;;-0.60;99.90;;;;;;4844674;29;20057;-65
2023/03/27 01:49:30;;;;;;;4.93;2.63;;;-0.60;99.90;;;;;;4846443;29;20103;-65
2023/03/27 01:52:04;;;;;;;2.80;2.25;;;-0.60;99.90;;;;;;4848985;29;20050;-62
2023/03/27 01:54:34;;;;;;;5.22;2.10;;;-0.70;99.90;;;;;;4847701;29;20106;-63
2023/03/27 01:57:21;;;;;;;12.00;2.30;;;-0.60;99.90;;;;;;4847024;29;20053;-63
2023/03/27 01:59:57;;;;;;;2.90;2.05;;;-0.70;99.90;;;;;;4842235;29;20161;-66
2023/03/27 02:02:52;;;;;;;2.05;1.83;;;-0.70;99.90;;;;;;4844075;29;20141;-64
2023/03/27 02:05:55;;;;;;;3.53;2.08;;;-0.70;99.90;;;;;;4842086;29;20049;-64
2023/03/27 02:08:33;;;;;;;2.10;1.85;;;-0.80;99.90;;;;;;4837490;29;20150;-67
2023/03/27 02:11:10;;;;;;;4.38;1.83;;;-0.70;99.90;;;;;;4846596;29;20110;-65
2023/03/27 02:13:44;;;;;;;7.43;2.10;;;-0.70;99.90;;;;;;4847683;29;20057;-63
2023/03/27 02:16:16;;;;;;;4.78;1.50;;;-0.70;99.90;;;;;;4865060;29;20052;-63
2023/03/27 02:18:50;;;;;;;4.60;1.65;;;-0.70;99.90;;;;;;4860783;29;20046;-66
2023/03/27 02:21:17;;;;;;;4.45;2.00;;;-0.70;99.90;;;;;;4862364;29;20166;-62
2023/03/27 02:23:46;;;;;;;3.97;2.13;;;-0.80;99.90;;;;;;4844431;29;20714;-62
2023/03/27 02:26:13;;;;;;;5.57;2.38;;;-0.70;99.90;;;;;;4858885;29;20052;-65
2023/03/27 02:28:56;;;;;;;2.78;1.60;;;-0.70;99.90;;;;;;4848145;29;20080;-64
2023/03/27 02:31:40;;;;;;;2.97;1.75;;;-0.80;99.90;;;;;;4847394;29;20106;-62
2023/03/27 02:34:35;;;;;;;6.45;2.30;;;-0.80;99.90;;;;;;4862863;29;20057;-64
2023/03/27 02:37:27;;;;;;;4.88;2.22;;;-0.80;99.90;;;;;;4858392;29;20177;-67
2023/03/27 02:40:58;;;;;;;2.58;2.33;;;-0.80;99.90;;;;;;4842140;29;20042;-64
2023/03/27 02:43:51;;;;;;;;;;;-0.80;99.90;;;;;;4843485;29;20137;-62
2023/03/27 02:46:51;;;;;;;5.82;2.22;;;-0.90;99.90;;;;;;4852204;29;19927;-63
2023/03/27 02:49:28;;;;;;;3.88;1.92;;;-0.80;99.90;;;;;;4846472;29;20046;-65
2023/03/27 02:52:02;;;;;;;4.78;2.28;;;-0.80;99.90;;;;;;4846971;29;20416;-61
2023/03/27 02:54:43;;;;;;;3.60;1.85;;;-0.90;99.90;;;;;;4842460;29;20042;-63
2023/03/27 02:57:17;;;;;;;;;;;-0.90;99.90;;;;;;4848879;29;20046;-62
2023/03/27 03:00:11;;;;;;;4.00;2.53;;;-0.90;99.90;;;;;;4846720;29;19935;-64
2023/03/27 03:02:40;;;;;;;4.85;1.80;;;-0.90;99.90;;;;;;4864817;29;20110;-65
2023/03/27 03:05:19;;;;;;;3.80;1.58;;;-0.80;99.90;;;;;;4842135;29;20253;-62
2023/03/27 03:07:47;;;;;;;2.58;1.52;;;-0.90;99.90;;;;;;4846633;29;20056;-63
2023/03/27 03:10:15;;;;;;;6.80;2.05;;;-0.90;99.90;;;;;;4855710;29;20052;-65
2023/03/27 03:12:42;;;;;;;4.47;1.73;;;-0.90;99.90;;;;;;4848936;29;20075;-66
2023/03/27 03:15:10;;;;;;;4.50;3.65;;;-0.90;99.90;;;;;;4845682;29;20492;-67
2023/03/27 03:17:37;;;;;;;3.33;2.00;;;-1.00;99.90;;;;;;4846847;29;20049;-65
2023/03/27 03:20:05;;;;;;;3.45;1.98;;;-1.00;99.90;;;;;;4845533;29;20045;-66
2023/03/27 03:22:33;;;;;;;6.55;1.63;;;-1.00;99.90;;;;;;4847523;29;20484;-64
2023/03/27 03:25:00;;;;;;;6.43;2.58;;;-1.10;99.90;;;;;;4843973;29;20080;-65
2023/03/27 03:27:27;;;;;;;6.07;2.03;;;-1.10;99.90;;;;;;4859191;29;20052;-63
2023/03/27 03:30:03;;;;;;;2.25;1.73;;;-1.00;99.90;;;;;;4848589;29;20160;-66
2023/03/27 03:32:38;;;;;;;5.78;3.13;;;-1.00;99.90;;;;;;4850959;29;20809;-64
2023/03/27 03:35:08;;;;;;;9.18;2.97;;;-1.00;99.90;;;;;;4842547;29;20125;-66
2023/03/27 03:37:37;;;;;;;5.68;2.08;;;-1.10;99.90;;;;;;4846896;29;20045;-68
2023/03/27 03:40:13;;;;;;;7.07;2.17;;;-1.00;99.90;;;;;;4860654;29;20141;-67
2023/03/27 03:42:49;;;;;;;5.20;2.35;;;-1.00;99.90;;;;;;4848441;29;20476;-64
2023/03/27 03:45:20;;;;;;;4.47;2.13;;;-1.00;99.90;;;;;;4845009;29;20073;-64
2023/03/27 03:47:47;;;;;;;4.95;1.98;;;-1.00;99.90;;;;;;4848829;29;20053;-65
2023/03/27 03:50:14;;;;;;;1.80;1.38;;;-1.00;99.90;;;;;;4849023;29;20103;-64
2023/03/27 03:52:42;;;;;;;3.92;1.65;;;-1.00;99.90;;;;;;4850408;29;20054;-66
2023/03/27 03:55:10;;;;;;;3.83;1.90;;;-1.00;99.90;;;;;;4843577;29;20400;-65
2023/03/27 03:57:37;;;;;;;2.10;1.90;;;-1.00;99.90;;;;;;4848442;29;20054;-66
2023/03/27 04:00:13;;;;;;;3.15;1.75;;;-1.00;99.90;;;;;;4849827;29;20125;-64
2023/03/27 04:02:42;;;;;;;5.15;1.63;;;-1.00;99.90;;;;;;4847575;29;20101;-62
2023/03/27 04:05:12;;;;;;;3.53;1.83;;;-1.00;99.90;;;;;;4843972;29;20381;-62
2023/03/27 04:07:39;;;;;;;7.47;1.83;;;-1.00;99.90;;;;;;4846428;29;20046;-61
2023/03/27 04:10:26;;;;;;;2.80;1.63;;;-1.10;99.90;;;;;;4847565;29;20669;-63
2023/03/27 04:12:54;;;;;;;4.78;1.92;;;-1.10;99.90;;;;;;4841560;29;20069;-62
2023/03/27 04:15:27;;;;;;;6.00;2.50;;;-1.10;99.90;;;;;;4844951;29;20471;-68
2023/03/27 04:18:08;;;;;;;3.40;2.42;;;-1.10;99.90;;;;;;4861957;29;20075;-64
2023/03/27 04:20:37;;;;;;;2.70;2.00;;;-1.10;99.90;;;;;;4845793;29;20065;-67
2023/03/27 04:23:07;;;;;;;8.38;2.65;;;-1.10;99.90;;;;;;4855439;29;20062;-65
2023/03/27 04:25:37;;;;;;;2.83;1.48;;;-1.10;99.90;;;;;;4848025;29;20049;-66
2023/03/27 04:28:04;;;;;;;2.08;1.70;;;-1.00;99.90;;;;;;4847747;29;20058;-65
2023/03/27 04:30:42;;;;;;;4.95;2.03;;;-1.00;99.90;;;;;;4841527;29;20064;-64
2023/03/27 04:33:28;;;;;;;7.63;2.23;;;-1.00;99.90;;;;;;4846200;29;20065;-63
2023/03/27 04:36:09;;;;;;;5.85;2.08;;;-1.10;99.90;;;;;;4845436;29;20725;-66
2023/03/27 04:38:51;;;;;;;3.83;2.97;;;-1.10;99.90;;;;;;4843828;29;20126;-63
2023/03/27 04:41:17;;;;;;;4.60;1.30;;;-1.10;99.90;;;;;;4856844;29;20465;-67
2023/03/27 04:43:44;;;;;;;3.58;2.47;;;-1.00;99.90;;;;;;4845651;29;20048;-65
2023/03/27 04:46:11;;;;;;;7.20;2.03;;;-1.10;99.90;;;;;;4842642;29;20053;-65
2023/03/27 04:48:41;;;;;;;3.72;1.85;;;-1.00;99.90;;;;;;4845922;29;20058;-68
2023/03/27 04:51:25;;;;;;;6.00;2.22;;;-1.00;99.90;;;;;;4844033;29;20481;-62
2023/03/27 04:53:55;;;;;;;5.07;3.33;;;-1.00;99.90;;;;;;4849224;29;20465;-66
2023/03/27 04:56:23;;;;;;;3.78;2.85;;;-1.00;99.90;;;;;;4864424;29;20046;-66
2023/03/27 04:58:53;;;;;;;;;;;-1.10;99.90;;;;;;4845935;29;20053;-67
2023/03/27 05:01:21;;;;;;;6.28;2.47;;;-1.10;99.90;;;;;;4847296;29;19973;-66
2023/03/27 05:04:08;;;;;;;6.07;2.05;;;-1.20;99.90;;;;;;4835128;29;20041;-67
2023/03/27 05:06:47;;;;;;;6.28;2.42;;;-1.20;99.90;;;;;;4849187;29;20159;-63
2023/03/27 05:09:16;;;;;;;7.07;2.08;;;-1.10;99.90;;;;;;4844394;29;20045;-61
2023/03/27 05:11:43;;;;;;;4.03;2.38;;;-1.10;99.90;;;;;;4842895;29;20068;-64
2023/03/27 05:14:10;;;;;;;4.60;2.45;;;-1.10;99.90;;;;;;4841977;29;20535;-62
2023/03/27 05:16:40;;;;;;;3.92;2.20;;;-1.10;99.90;;;;;;4856797;29;20056;-62
2023/03/27 05:19:08;;;;;;;6.30;2.08;;;-1.10;99.90;;;;;;4857345;29;20106;-64
2023/03/27 05:21:39;;;;;;;2.67;2.10;;;-1.10;99.90;;;;;;4844427;29;21576;-67
2023/03/27 05:24:09;;;;;;;4.22;2.30;;;-1.20;99.90;;;;;;4847336;29;20081;-65
2023/03/27 05:26:38;;;;;;;2.33;1.80;;;-1.20;99.90;;;;;;4853325;29;20950;-64
2023/03/27 05:29:05;;;;;;;3.25;2.58;;;-1.30;99.90;;;;;;4845667;29;20174;-63
2023/03/27 05:31:35;;;;;;;8.55;2.25;;;-1.30;99.90;;;;;;4852375;29;20755;-63
2023/03/27 05:34:21;;;;;;;4.43;2.28;;;-1.30;99.90;;;;;;4851027;29;20411;-65
2023/03/27 05:36:51;;;;;;;10.98;3.90;;;-1.30;99.90;;;;;;4848272;29;20393;-67
2023/03/27 05:39:19;;;;;;;4.60;2.03;;;-1.20;99.90;;;;;;4856785;29;20060;-64
2023/03/27 05:41:46;;;;;;;6.22;2.42;;;-1.30;99.90;;;;;;4852923;29;20389;-66
2023/03/27 05:44:21;;;;;;;6.15;2.08;;;-1.30;99.90;;;;;;4851999;29;20046;-64
2023/03/27 05:46:48;;;;;;;4.25;2.00;;;-1.30;99.90;;;;;;4851335;29;20069;-68
2023/03/27 05:49:24;;;;;;;3.50;2.60;;;-1.30;99.90;;;;;;4846598;29;20054;-65
2023/03/27 05:51:57;;;;;;;2.83;1.90;;;-1.30;99.90;;;;;;4850101;29;20684;-61
2023/03/27 05:54:24;;;;;;;2.70;2.17;;;-1.30;99.90;;;;;;4848524;29;20057;-62
2023/03/27 05:56:59;;;;;;;6.38;2.17;;;-1.40;99.90;;;;;;4846933;29;20161;-64
2023/03/27 05:59:26;;;;;;;4.38;1.77;;;-1.30;99.90;;;;;;4849141;29;20152;-66
2023/03/27 06:01:59;;;;;;;4.75;1.67;;;-1.30;99.90;;;;;;4851714;29;20096;-67
2023/03/27 06:04:38;;;;;;;5.80;2.05;;;-1.30;99.90;;;;;;4846583;29;20400;-63
2023/03/27 06:07:09;;;;;;;3.97;1.75;;;-1.20;99.90;;;;;;4831355;29;20055;-67
2023/03/27 06:09:36;;;;;;;5.72;2.25;;;-1.20;99.90;;;;;;4851017;29;20501;-62
2023/03/27 06:12:23;;;;;;;2.85;1.70;;;-1.30;99.90;;;;;;4848308;29;20081;-62
2023/03/27 06:14:57;;;;;;;3.03;1.75;;;-1.30;99.90;;;;;;4858048;29;20060;-66
2023/03/27 06:17:33;;;;;;;4.55;2.00;;;-1.30;99.90;;;;;;4847337;29;20069;-60
2023/03/27 06:20:09;;;;;;;5.70;2.38;;;-1.20;99.90;;;;;;4848886;29;20073;-62
2023/03/27 06:22:48;;;;;;;6.13;2.20;;;-1.20;99.90;;;;;;4846379;29;20073;-65
2023/03/27 06:25:19;;;;;;;4.63;2.30;;;-1.20;99.90;;;;;;4844367;29;20631;-61
2023/03/27 06:27:47;;;;;;;4.57;2.10;;;-1.30;99.90;;;;;;4850890;29;20042;-62
2023/03/27 06:30:17;;;;;;;2.72;1.60;;;-1.30;99.90;;;;;;4849909;29;20054;-61
2023/03/27 06:33:00;;;;;;;5.30;2.00;;;-1.30;99.90;;;;;;4846326;29;20045;-66
2023/03/27 06:35:29;;;;;;;2.75;1.48;;;-1.30;99.90;;;;;;4847941;29;20097;-62
2023/03/27 06:38:09;;;;;;;3.85;1.95;;;-1.30;99.90;;;;;;4846944;29;20423;-63
2023/03/27 06:40:38;;;;;;;2.35;2.15;;;-1.30;99.90;;;;;;4866414;29;20123;-67
2023/03/27 06:43:07;;;;;;;3.75;1.38;;;-1.30;99.90;;;;;;4841994;29;20400;-62
2023/03/27 06:45:47;;;;;;;3.72;2.22;;;-1.30;99.90;;;;;;4846061;29;20045;-66
2023/03/27 06:48:53;;;;;;;3.38;1.83;;;-1.30;99.90;;;;;;4772517;29;20056;-64
2023/03/27 06:51:21;;;;;;;4.65;1.60;;;-1.30;99.90;;;;;;4760966;30;20537;-64
2023/03/27 06:53:50;;;;;;;4.25;1.50;;;-1.30;99.90;;;;;;4799484;29;20150;-64
2023/03/27 06:56:17;;;;;;;4.13;1.30;;;-1.40;99.90;;;;;;4867728;29;20061;-62
2023/03/27 06:59:10;;;;;;;3.70;1.90;;;-1.40;99.90;;;;;;4845206;29;20050;-62
2023/03/27 07:01:38;;;;;;;2.83;1.70;;;-1.40;99.90;;;;;;4851106;29;20097;-63
2023/03/27 07:04:28;;;;;;;3.17;1.83;;;-1.30;99.90;;;;;;4842429;29;20702;-64
2023/03/27 07:07:11;;;;;;;5.00;1.73;;;-1.30;99.90;;;;;;4856635;29;20049;-62
2023/03/27 07:09:40;;;;;;;3.67;1.60;;;-1.30;99.90;;;;;;4866139;29;20049;-62
2023/03/27 07:12:09;;;;;;;3.10;1.58;;;-1.40;99.90;;;;;;4848866;29;20476;-65
2023/03/27 07:14:38;;;;;;;4.95;2.25;;;-1.30;99.90;;;;;;4842868;29;20077;-65
2023/03/27 07:17:05;;;;;;;9.13;3.00;;;-1.40;99.90;;;;;;4845400;29;20074;-62
2023/03/27 07:19:48;;;;;;;1.60;1.50;;;-1.40;99.90;;;;;;4846444;29;20664;-67
2023/03/27 07:22:17;;;;;;;2.63;1.85;;;-1.40;99.90;;;;;;4863287;29;20683;-64
2023/03/27 07:24:46;;;;;;;5.95;4.10;;;-1.40;99.90;;;;;;4859750;29;20074;-63
2023/03/27 07:27:15;;;;;;;4.30;2.53;;;-1.40;99.90;;;;;;4860086;29;20042;-64
2023/03/27 07:29:42;;;;;;;5.10;2.03;;;-1.30;99.90;;;;;;4847122;29;20485;-65
2023/03/27 07:32:15;;;;;;;3.80;1.75;;;-1.40;99.90;;;;;;4862323;29;20051;-62
2023/03/27 07:35:04;;;;;;;4.78;1.83;;;-1.40;99.90;;;;;;4845692;29;20041;-65
2023/03/27 07:37:52;;;;;;;3.13;1.88;;;-1.40;99.90;;;;;;4850592;29;20052;-63
2023/03/27 07:40:45;;;;;;;7.28;2.15;;;-1.30;99.90;;;;;;4846804;29;20041;-63
2023/03/27 07:43:41;;;;;;;2.08;1.75;;;-1.40;99.90;;;;;;4845601;29;20046;-67
2023/03/27 07:46:09;;;;;;;4.03;2.05;;;-1.30;99.90;;;;;;4849485;29;20510;-62
2023/03/27 07:48:36;;;;;;;14.02;2.08;;;-1.30;99.90;;;;;;4863443;29;20384;-64
2023/03/27 07:51:04;;;;;;;2.17;1.60;;;-1.30;99.90;;;;;;4845885;29;20084;-68
2023/03/27 07:53:34;;;;;;;2.50;1.60;;;-1.40;99.90;;;;;;4867413;29;20076;-62
2023/03/27 07:56:27;;;;;;;5.30;2.67;;;-1.40;99.90;;;;;;4843538;29;20849;-65
2023/03/27 07:59:15;;;;;;;3.80;1.42;;;-1.40;99.90;;;;;;4843262;29;20150;-63
2023/03/27 08:01:42;;;;;;;4.90;1.60;;;-1.30;99.90;;;;;;4863639;29;20057;-68
2023/03/27 08:04:09;;;;;;;3.45;1.60;;;-1.20;99.90;;;;;;4853834;29;20109;-68
2023/03/27 08:06:39;;;;;;;4.22;2.00;;;-1.20;99.90;;;;;;4849904;29;20050;-68
2023/03/27 08:09:11;;;;;;;3.55;3.05;;;-1.20;99.90;;;;;;4844686;29;20049;-64
2023/03/27 08:11:40;;;;;;;2.90;1.88;;;-1.20;99.90;;;;;;4864841;29;20045;-68
2023/03/27 08:14:10;;;;;;;4.32;1.45;;;-1.20;99.90;;;;;;4848195;29;20052;-64
2023/03/27 08:16:37;;;;;;;2.58;1.85;;;-1.20;99.90;;;;;;4842923;29;20051;-63
2023/03/27 08:19:05;;;;;;;5.28;2.08;;;-1.20;99.90;;;;;;4846358;29;20053;-64
2023/03/27 08:21:37;;;;;;;1.95;1.40;;;-1.20;99.90;;;;;;4842814;29;20085;-65
2023/03/27 08:24:04;;;;;;;5.05;1.80;;;-1.10;99.90;;;;;;4846510;29;20090;-65
2023/03/27 08:26:51;;;;;;;2.00;1.60;;;-1.00;99.90;;;;;;4848891;29;20055;-64
2023/03/27 08:29:18;;;;;;;3.70;1.75;;;-1.00;99.90;;;;;;4840237;29;20038;-63
2023/03/27 08:31:46;;;;;;;3.58;1.98;;;-1.00;99.90;;;;;;4845276;29;20057;-62
2023/03/27 08:34:14;;;;;;;2.30;1.38;;;-0.90;99.90;;;;;;4841699;29;20049;-62
2023/03/27 08:36:47;;;;;;;2.78;2.03;;;-0.90;99.90;;;;;;4863146;29;20112;-60
2023/03/27 08:39:15;;;;;;;2.30;1.67;;;-0.90;99.90;;;;;;4859197;29;20388;-61
2023/03/27 08:41:54;;;;;;;2.47;1.60;;;-1.00;99.90;;;;;;4866168;29;20054;-63
2023/03/27 08:44:30;;;;;;;5.00;1.83;;;-0.90;99.90;;;;;;4843353;29;20057;-63
2023/03/27 08:47:00;;;;;;;;;;;-0.80;99.90;;;;;;4841812;29;20058;-64
2023/03/27 08:49:35;;;;;;;4.30;2.30;;;-0.80;99.90;;;;;;4846659;29;20051;-63
2023/03/27 08:52:28;;;;;;;2.22;2.00;;;-0.90;99.90;;;;;;4844880;29;20041;-62
2023/03/27 08:55:05;;;;;;;3.40;1.50;;;-0.90;99.90;;;;;;4858025;29;20639;-60
2023/03/27 08:57:39;;;;;;;3.40;2.17;;;-0.80;99.90;;;;;;4843623;29;20073;-64
2023/03/27 09:00:21;;;;;;;2.78;2.22;;;-0.80;99.90;;;;;;4860021;29;20099;-62
2023/03/27 09:03:13;;;;;;;7.63;2.08;;;-0.70;99.90;;;;;;4865422;29;20121;-65
2023/03/27 09:06:01;;;;;;;3.15;1.98;;;-0.80;99.90;;;;;;4845175;29;20162;-64
2023/03/27 09:08:55;;;;;;;3.47;1.60;;;-0.80;99.90;;;;;;4861959;29;20042;-68
2023/03/27 09:11:55;;;;;;;3.47;2.03;;;-1.00;99.90;;;;;;4842785;29;20054;-67
2023/03/27 09:14:34;;;;;;;5.63;1.95;;;-0.90;99.90;;;;;;4845587;29;20053;-62
2023/03/27 09:17:13;;;;;;;2.50;2.00;;;-1.00;99.90;;;;;;4841755;29;20049;-62
2023/03/27 09:19:49;;;;;;;3.50;2.70;;;-0.90;99.90;;;;;;4843647;29;20118;-69
2023/03/27 09:22:26;;;;;;;8.15;2.00;;;-0.60;99.90;;;;;;4858457;29;20061;-63
2023/03/27 09:25:20;;;;;;;2.78;1.98;;;-0.60;99.90;;;;;;4839209;29;20518;-64
2023/03/27 09:28:38;;;;;;;3.58;1.70;;;-0.60;99.90;;;;;;4842108;29;20053;-66
2023/03/27 09:31:27;;;;;;;3.53;2.45;;;-0.90;99.90;;;;;;4839479;29;20049;-67
2023/03/27 09:33:59;;;;;;;4.72;1.88;;;-0.90;99.90;;;;;;4861053;29;20054;-65
2023/03/27 09:36:27;;;;;;;5.50;2.47;;;-0.90;99.90;;;;;;4862254;29;20053;-64
2023/03/27 09:39:06;;;;;;;4.55;2.00;;;-1.00;99.90;;;;;;4841755;29;20056;-63
2023/03/27 09:41:43;;;;;;;3.30;2.03;;;-0.90;99.90;;;;;;4847254;29;20538;-64
2023/03/27 09:44:26;;;;;;;2.63;2.22;;;-0.90;99.90;;;;;;4858517;29;20073;-64
2023/03/27 09:47:18;;;;;;;2.53;2.30;;;-0.80;99.90;;;;;;4845046;29;20731;-67
2023/03/27 09:49:55;;;;;;;3.75;1.70;;;-0.70;99.90;;;;;;4837699;29;20050;-61
2023/03/27 09:52:36;;;;;;;4.20;1.73;;;-0.70;99.90;;;;;;4854138;29;20045;-60
2023/03/27 09:55:30;;;;;;;2.40;2.10;;;-0.80;99.90;;;;;;4840561;29;20392;-66
2023/03/27 09:58:14;;;;;;;1.58;1.35;;;-0.80;99.90;;;;;;4846689;29;20056;-66
2023/03/27 10:00:41;;;;;;;3.22;2.30;;;-0.80;99.90;;;;;;4843780;29;20061;-64
2023/03/27 10:03:19;;;;;;;4.90;1.85;;;-0.80;99.90;;;;;;4843966;29;20139;-70
2023/03/27 10:06:06;;;;;;;2.78;1.92;;;-0.90;99.90;;;;;;4867145;29;20064;-67
2023/03/27 10:08:49;;;;;;;3.83;1.70;;;-0.90;99.90;;;;;;4863002;29;20067;-63
2023/03/27 10:11:32;;;;;;;5.65;1.75;;;-0.90;99.90;;;;;;4861488;29;20109;-67
2023/03/27 10:14:17;;;;;;;4.88;1.85;;;-0.90;99.90;;;;;;4864568;29;20056;-67
2023/03/27 10:16:46;;;;;;;3.30;1.70;;;-0.80;99.90;;;;;;4862636;29;20041;-62
2023/03/27 10:19:38;;;;;;;2.15;1.75;;;-0.80;99.90;;;;;;4845633;29;20075;-67
2023/03/27 10:22:27;;;;;;;2.53;1.55;;;-0.80;99.90;;;;;;4859662;29;20073;-62
2023/03/27 10:24:59;;;;;;;5.85;1.25;;;-0.70;99.90;;;;;;4856236;29;20048;-64
2023/03/27 10:27:52;;;;;;;3.40;1.75;;;-0.60;99.90;;;;;;4840745;29;20140;-63
2023/03/27 10:30:26;;;;;;;6.35;1.85;;;-0.70;99.90;;;;;;4849309;29;20053;-66
2023/03/27 10:32:59;;;;;;;3.95;1.60;;;-0.70;99.90;;;;;;4858345;29;20064;-70
2023/03/27 10:35:48;;;;;;;3.55;1.90;;;-0.70;99.90;;;;;;4848093;29;20081;-67
2023/03/27 10:38:21;;;;;;;3.47;2.13;;;-0.60;99.90;;;;;;4858726;29;20056;-64
2023/03/27 10:41:16;;;;;;;3.78;1.85;;;-0.50;99.90;;;;;;4847647;29;20060;-63
2023/03/27 10:43:57;;;;;;;6.63;1.92;;;-0.80;99.90;;;;;;4853905;29;21002;-67
2023/03/27 10:46:26;;;;;;;7.13;2.13;;;-0.90;99.90;;;;;;4850867;29;20057;-68
2023/03/27 10:49:19;;;;;;;1.42;1.33;;;-1.00;99.90;;;;;;4860183;29;20220;-67
2023/03/27 10:51:49;;;;;;;;;;;-1.00;99.90;;;;;;4856021;29;20053;-63
2023/03/27 10:54:56;;;;;;;3.75;2.10;;;-0.80;99.90;;;;;;4846987;29;19931;-64
2023/03/27 10:57:28;;;;;;;2.72;2.00;;;-0.80;99.90;;;;;;4844298;29;20160;-66
2023/03/27 11:00:18;;;;;;;2.53;1.88;;;-0.80;99.90;;;;;;4846477;29;20060;-67
2023/03/27 11:03:13;;;;;;;1.50;1.40;;;-0.80;99.90;;;;;;4862797;29;20067;-68
2023/03/27 11:05:45;;;;;;;3.25;2.20;;;-0.80;99.90;;;;;;4861926;29;20100;-68
2023/03/27 11:08:48;;;;;;;3.67;2.22;;;-0.80;99.90;;;;;;4846989;29;20045;-66
2023/03/27 11:11:25;;;;;;;2.72;1.80;;;-0.80;99.90;;;;;;4845067;29;20484;-62
2023/03/27 11:14:00;;;;;;;2.65;1.85;;;-0.90;99.90;;;;;;4862574;29;20041;-68
2023/03/27 11:16:38;;;;;;;2.22;1.73;;;-0.90;99.90;;;;;;4839636;29;20054;-65
2023/03/27 11:19:44;;;;;;;4.30;1.40;;;-0.80;99.90;;;;;;4844801;29;20085;-63
2023/03/27 11:22:31;;;;;;;2.63;1.77;;;-0.80;99.90;;;;;;4846428;29;20053;-64
2023/03/27 11:25:30;;;;;;;1.98;1.45;;;-0.80;99.90;;;;;;4840876;29;20111;-65
2023/03/27 11:28:10;;;;;;;3.22;1.73;;;-0.80;99.90;;;;;;4835587;29;20061;-65
2023/03/27 11:30:43;;;;;;;;;;;-0.80;99.90;;;;;;4833831;29;20053;-67
2023/03/27 11:33:31;;;;;;;2.35;1.55;;;-0.60;99.90;;;;;;4851972;29;19939;-71
2023/03/27 11:36:25;;;;;;;6.35;1.95;;;-0.40;99.90;;;;;;4858726;29;20049;-65
2023/03/27 11:39:00;;;;;;;3.05;1.30;;;-0.50;99.90;;;;;;4858517;29;20077;-68
2023/03/27 11:41:27;;;;;;;2.35;1.60;;;-0.70;99.90;;;;;;4847631;29;20136;-69
2023/03/27 11:43:59;;;;;;;2.13;1.58;;;-0.50;99.90;;;;;;4853950;29;20053;-66
2023/03/27 11:47:03;;;;;;;6.60;1.80;;;-0.50;99.90;;;;;;4846905;29;20052;-68
2023/03/27 11:49:37;;;;;;;5.43;2.83;;;-0.40;99.90;;;;;;4843437;29;20192;-63
2023/03/27 11:52:20;;;;;;;2.40;1.25;;;-0.50;99.90;;;;;;4844854;29;20878;-68
2023/03/27 11:55:16;;;;;;;2.15;1.52;;;-0.40;99.90;;;;;;4843834;29;20045;-64
2023/03/27 11:58:16;;;;;;;1.23;0.90;;;-0.50;99.90;;;;;;4846768;29;20129;-65
2023/03/27 12:00:53;;;;;;;2.88;1.50;;;-0.40;99.90;;;;;;4858937;29;20056;-64
2023/03/27 12:03:47;;;;;;;1.90;1.20;;;-0.50;99.90;;;;;;4842336;29;20816;-66
2023/03/27 12:06:33;;;;;;;4.95;2.05;;;-0.30;99.90;;;;;;4848357;29;20141;-65
2023/03/27 12:09:44;;;;;;;2.70;1.38;;;-0.30;99.90;;;;;;4840598;29;20042;-70
2023/03/27 12:13:13;;;;;;;5.38;1.33;;;-0.40;99.90;;;;;;4848573;29;20053;-62
2023/03/27 12:16:01;;;;;;;1.23;1.13;;;-0.60;99.90;;;;;;4808403;29;20106;-65
2023/03/27 12:18:39;;;;;;;1.77;1.10;;;-0.50;99.90;;;;;;4846054;29;20085;-70
2023/03/27 12:21:40;;;;;;;4.28;2.08;;;-0.60;99.90;;;;;;4840870;29;20219;-67
2023/03/27 12:24:20;;;;;;;2.15;1.38;;;-0.50;99.90;;;;;;4855063;29;20530;-66
2023/03/27 12:27:28;;;;;;;3.55;1.10;;;-0.30;99.90;;;;;;4844829;29;20089;-64
2023/03/27 12:30:31;;;;;;;2.67;1.70;;;0.00;99.90;;;;;;4842431;29;20053;-63
2023/03/27 12:33:17;;;;;;;4.03;2.05;;;-0.10;99.90;;;;;;4859262;29;20090;-64
2023/03/27 12:35:48;;;;;;;4.68;1.63;;;-0.80;99.90;;;;;;4843801;29;20880;-66
2023/03/27 12:38:25;;;;;;;9.82;2.80;;;-1.30;99.90;;;;;;4844954;29;20152;-68
2023/03/27 12:41:00;;;;;;;4.28;2.40;;;-1.30;99.90;;;;;;4839272;29;20054;-68
2023/03/27 12:43:38;;;;;;;3.70;2.00;;;-1.40;99.90;;;;;;4857849;29;20048;-64
2023/03/27 12:46:25;;;;;;;6.18;1.90;;;-1.40;99.90;;;;;;4838672;29;20420;-68
2023/03/27 12:48:57;;;;;;;1.85;1.67;;;-1.30;99.90;;;;;;4846188;29;20091;-69
2023/03/27 12:52:04;;;;;;;2.78;2.38;;;-1.10;99.90;;;;;;4842073;29;20061;-69
2023/03/27 12:55:17;;;;;;;2.13;1.40;;;-0.80;99.90;;;;;;4848426;29;20157;-67
2023/03/27 12:57:52;;;;;;;3.88;1.48;;;-0.70;99.90;;;;;;4843144;29;20053;-69
2023/03/27 13:00:40;;;;;;;4.75;1.30;;;-0.40;99.90;;;;;;4843467;29;20054;-63
2023/03/27 13:03:32;;;;;;;4.18;1.52;;;0.00;99.90;;;;;;4859578;29;20110;-70
2023/03/27 13:06:11;;;;;;;3.17;1.73;;;-0.20;99.90;;;;;;4860655;29;20450;-72
2023/03/27 13:09:01;;;;;;;1.67;1.58;;;-0.70;99.90;;;;;;4858324;29;20077;-63
2023/03/27 13:11:59;;;;;;;4.68;1.45;;;-1.00;99.90;;;;;;4838638;29;20390;-67
2023/03/27 13:15:05;;;;;;;5.05;2.25;;;-1.00;99.90;;;;;;4857883;29;20053;-71
2023/03/27 13:18:09;;;;;;;1.70;1.00;;;-0.80;99.90;;;;;;4857624;29;20050;-64
2023/03/27 13:20:49;;;;;;;2.83;2.25;;;-0.60;99.90;;;;;;4843309;29;20046;-68
2023/03/27 13:23:41;;;;;;;2.28;1.48;;;-0.60;99.90;;;;;;4845264;29;20054;-66
2023/03/27 13:26:20;;;;;;;2.20;1.42;;;-0.50;99.90;;;;;;4844758;29;20393;-67
2023/03/27 13:28:53;;;;;;;5.18;1.63;;;-0.50;99.90;;;;;;4845635;29;20049;-65
2023/03/27 13:31:45;;;;;;;1.75;1.15;;;-0.50;99.90;;;;;;4857340;29;20096;-69
2023/03/27 13:34:37;;;;;;;2.42;1.45;;;-0.60;99.90;;;;;;4842967;29;20046;-65
2023/03/27 13:37:10;;;;;;;3.70;2.78;;;-0.50;99.90;;;;;;4844678;29;20084;-64
2023/03/27 13:40:06;;;;;;;1.85;1.17;;;-0.40;99.90;;;;;;4856448;29;20201;-69
2023/03/27 13:42:40;;;;;;;2.88;1.20;;;-0.10;99.90;;;;;;4844532;29;20864;-64
2023/03/27 13:45:24;;;;;;;2.95;1.00;;;0.20;99.90;;;;;;4847729;29;20136;-64